モンロビア の空港の天気 - METARとTAF

モンロビア・ロバーツ国際空港 ( GLRB / ROB ) - リベリア モンロビア
飛行場実況気象(Metar)
観測時間-
風向・風速- -
視程-
天気現象-
-
気温-
湿度-
気圧-
METAR-
過去の天気等 Google飛行場航空写真 Wunderground天気予報

過去48時間のMETAR

飛行場予報(TAF)
発表時間: 5/25 11:00 GMT (5/25 11:00 UTC)
予報対象時間: 25日11時 GMT ~ 26日12時 GMT
風向・風速西南西 5m/s
視程9000m
全天の8割程度の雲 雲底高度 300m
25日13時 GMT ~ 25日17時 GMT に一時的に
風向・風速南南西 4m/s
視程7000m
天気現象雨霧雨
全天の4割程度の雲 雲底高度 180m
全天の8割程度の雲 雲底高度 300m
少しの積乱雲 雲底高度 670m
25日18時 GMT ~ 25日22時 GMT に一時的に
風向・風速静穏
視程8000m
天気現象弱い雨
TAF GLRB 251100Z 2511/2612 24010KT 9000 BKN010
TEMPO 2513/2517 20008KT 7000 RADZ SCT006 BKN010 FEW022CB
TEMPO 2518/2522 00000KT 8000 -RA